sensor_id;sensor_type;location;lat;lon;timestamp;P1;durP1;ratioP1;P2;durP2;ratioP2
80985;SDS011;70451;51.226;6.412;2023-07-02T00:02:07;5.40;;;2.72;;
80985;SDS011;70451;51.226;6.412;2023-07-02T00:04:22;4.18;;;2.53;;
80985;SDS011;70451;51.226;6.412;2023-07-02T00:06:38;5.72;;;2.72;;
80985;SDS011;70451;51.226;6.412;2023-07-02T00:08:55;9.98;;;2.70;;
80985;SDS011;70451;51.226;6.412;2023-07-02T00:11:10;4.45;;;2.65;;
80985;SDS011;70451;51.226;6.412;2023-07-02T00:13:27;5.55;;;2.50;;
80985;SDS011;70451;51.226;6.412;2023-07-02T00:15:42;6.47;;;3.03;;
80985;SDS011;70451;51.226;6.412;2023-07-02T00:17:58;6.05;;;2.63;;
80985;SDS011;70451;51.226;6.412;2023-07-02T00:20:13;5.80;;;2.92;;
80985;SDS011;70451;51.226;6.412;2023-07-02T00:22:31;5.90;;;2.95;;
80985;SDS011;70451;51.226;6.412;2023-07-02T00:24:51;6.22;;;2.70;;
80985;SDS011;70451;51.226;6.412;2023-07-02T00:27:10;4.55;;;2.50;;
80985;SDS011;70451;51.226;6.412;2023-07-02T00:29:25;7.40;;;3.00;;
80985;SDS011;70451;51.226;6.412;2023-07-02T00:31:41;7.82;;;2.97;;
80985;SDS011;70451;51.226;6.412;2023-07-02T00:33:56;5.68;;;3.05;;
80985;SDS011;70451;51.226;6.412;2023-07-02T00:36:12;6.00;;;2.92;;
80985;SDS011;70451;51.226;6.412;2023-07-02T00:38:31;5.45;;;2.92;;
80985;SDS011;70451;51.226;6.412;2023-07-02T00:40:46;5.90;;;2.75;;
80985;SDS011;70451;51.226;6.412;2023-07-02T00:43:02;6.30;;;2.70;;
80985;SDS011;70451;51.226;6.412;2023-07-02T00:45:17;7.85;;;3.17;;
80985;SDS011;70451;51.226;6.412;2023-07-02T00:47:33;5.78;;;3.03;;
80985;SDS011;70451;51.226;6.412;2023-07-02T00:49:50;5.40;;;2.63;;
80985;SDS011;70451;51.226;6.412;2023-07-02T00:52:05;5.57;;;2.95;;
80985;SDS011;70451;51.226;6.412;2023-07-02T00:54:21;6.20;;;3.13;;
80985;SDS011;70451;51.226;6.412;2023-07-02T00:56:36;6.10;;;3.13;;
80985;SDS011;70451;51.226;6.412;2023-07-02T00:58:52;6.38;;;3.10;;
80985;SDS011;70451;51.226;6.412;2023-07-02T01:01:08;6.78;;;3.35;;
80985;SDS011;70451;51.226;6.412;2023-07-02T01:03:24;11.85;;;3.53;;
80985;SDS011;70451;51.226;6.412;2023-07-02T01:05:39;6.70;;;3.55;;
80985;SDS011;70451;51.226;6.412;2023-07-02T01:07:56;7.18;;;3.88;;
80985;SDS011;70451;51.226;6.412;2023-07-02T01:10:11;7.30;;;3.17;;
80985;SDS011;70451;51.226;6.412;2023-07-02T01:12:26;9.60;;;4.13;;
80985;SDS011;70451;51.226;6.412;2023-07-02T01:14:50;10.25;;;4.00;;
80985;SDS011;70451;51.226;6.412;2023-07-02T01:17:08;7.90;;;3.47;;
80985;SDS011;70451;51.226;6.412;2023-07-02T01:22:00;7.38;;;3.75;;
80985;SDS011;70451;51.226;6.412;2023-07-02T01:24:16;8.70;;;4.28;;
80985;SDS011;70451;51.226;6.412;2023-07-02T01:26:32;11.38;;;4.22;;
80985;SDS011;70451;51.226;6.412;2023-07-02T01:28:48;12.00;;;4.35;;
80985;SDS011;70451;51.226;6.412;2023-07-02T01:31:05;8.65;;;4.40;;
80985;SDS011;70451;51.226;6.412;2023-07-02T01:33:21;12.23;;;4.28;;
80985;SDS011;70451;51.226;6.412;2023-07-02T01:35:36;10.10;;;4.60;;
80985;SDS011;70451;51.226;6.412;2023-07-02T01:37:51;8.32;;;4.10;;
80985;SDS011;70451;51.226;6.412;2023-07-02T01:40:07;7.35;;;4.72;;
80985;SDS011;70451;51.226;6.412;2023-07-02T01:42:23;9.27;;;4.68;;
80985;SDS011;70451;51.226;6.412;2023-07-02T01:44:38;11.05;;;4.25;;
80985;SDS011;70451;51.226;6.412;2023-07-02T01:46:54;10.38;;;4.65;;
80985;SDS011;70451;51.226;6.412;2023-07-02T01:49:11;12.68;;;4.32;;
80985;SDS011;70451;51.226;6.412;2023-07-02T01:51:26;10.98;;;5.60;;
80985;SDS011;70451;51.226;6.412;2023-07-02T01:53:41;12.13;;;6.30;;
80985;SDS011;70451;51.226;6.412;2023-07-02T01:55:56;10.13;;;5.07;;
80985;SDS011;70451;51.226;6.412;2023-07-02T01:58:12;10.95;;;4.55;;
80985;SDS011;70451;51.226;6.412;2023-07-02T02:00:27;10.38;;;5.40;;
80985;SDS011;70451;51.226;6.412;2023-07-02T02:02:42;11.23;;;5.25;;
80985;SDS011;70451;51.226;6.412;2023-07-02T02:04:58;10.88;;;4.90;;
80985;SDS011;70451;51.226;6.412;2023-07-02T02:07:13;13.00;;;6.25;;
80985;SDS011;70451;51.226;6.412;2023-07-02T02:09:29;12.77;;;5.80;;
80985;SDS011;70451;51.226;6.412;2023-07-02T02:11:50;13.07;;;6.05;;
80985;SDS011;70451;51.226;6.412;2023-07-02T02:14:07;15.15;;;5.78;;
80985;SDS011;70451;51.226;6.412;2023-07-02T02:16:22;13.48;;;5.80;;
80985;SDS011;70451;51.226;6.412;2023-07-02T02:18:38;14.35;;;5.82;;
80985;SDS011;70451;51.226;6.412;2023-07-02T02:20:53;11.90;;;5.97;;
80985;SDS011;70451;51.226;6.412;2023-07-02T02:23:08;15.27;;;5.93;;
80985;SDS011;70451;51.226;6.412;2023-07-02T02:25:24;15.43;;;6.18;;
80985;SDS011;70451;51.226;6.412;2023-07-02T02:27:39;16.02;;;5.93;;
80985;SDS011;70451;51.226;6.412;2023-07-02T02:29:55;12.65;;;6.30;;
80985;SDS011;70451;51.226;6.412;2023-07-02T02:32:10;12.00;;;5.65;;
80985;SDS011;70451;51.226;6.412;2023-07-02T02:34:25;17.30;;;6.95;;
80985;SDS011;70451;51.226;6.412;2023-07-02T02:36:40;12.85;;;6.03;;
80985;SDS011;70451;51.226;6.412;2023-07-02T02:38:56;12.18;;;6.15;;
80985;SDS011;70451;51.226;6.412;2023-07-02T02:41:11;17.30;;;6.97;;
80985;SDS011;70451;51.226;6.412;2023-07-02T02:43:27;13.95;;;6.78;;
80985;SDS011;70451;51.226;6.412;2023-07-02T02:45:42;17.45;;;6.50;;
80985;SDS011;70451;51.226;6.412;2023-07-02T02:47:58;12.85;;;6.25;;
80985;SDS011;70451;51.226;6.412;2023-07-02T02:50:13;13.80;;;6.68;;
80985;SDS011;70451;51.226;6.412;2023-07-02T02:52:29;14.63;;;6.78;;
80985;SDS011;70451;51.226;6.412;2023-07-02T02:54:45;16.05;;;7.00;;
80985;SDS011;70451;51.226;6.412;2023-07-02T02:57:00;14.30;;;6.95;;
80985;SDS011;70451;51.226;6.412;2023-07-02T02:59:16;15.77;;;6.55;;
80985;SDS011;70451;51.226;6.412;2023-07-02T03:01:31;13.48;;;7.18;;
80985;SDS011;70451;51.226;6.412;2023-07-02T03:03:47;14.35;;;6.18;;
80985;SDS011;70451;51.226;6.412;2023-07-02T03:06:02;16.65;;;6.93;;
80985;SDS011;70451;51.226;6.412;2023-07-02T03:08:18;15.05;;;7.15;;
80985;SDS011;70451;51.226;6.412;2023-07-02T03:10:33;15.52;;;6.88;;
80985;SDS011;70451;51.226;6.412;2023-07-02T03:12:48;14.40;;;6.47;;
80985;SDS011;70451;51.226;6.412;2023-07-02T03:15:04;12.88;;;6.28;;
80985;SDS011;70451;51.226;6.412;2023-07-02T03:17:20;11.40;;;6.25;;
80985;SDS011;70451;51.226;6.412;2023-07-02T03:19:38;16.63;;;7.32;;
80985;SDS011;70451;51.226;6.412;2023-07-02T03:21:54;17.95;;;7.60;;
80985;SDS011;70451;51.226;6.412;2023-07-02T03:24:09;15.43;;;7.20;;
80985;SDS011;70451;51.226;6.412;2023-07-02T03:26:28;18.80;;;7.68;;
80985;SDS011;70451;51.226;6.412;2023-07-02T03:28:43;14.73;;;7.07;;
80985;SDS011;70451;51.226;6.412;2023-07-02T03:30:58;17.35;;;6.60;;
80985;SDS011;70451;51.226;6.412;2023-07-02T03:33:14;17.13;;;7.78;;
80985;SDS011;70451;51.226;6.412;2023-07-02T03:35:29;18.40;;;7.25;;
80985;SDS011;70451;51.226;6.412;2023-07-02T03:37:44;15.45;;;7.57;;
80985;SDS011;70451;51.226;6.412;2023-07-02T03:40:01;15.82;;;7.00;;
80985;SDS011;70451;51.226;6.412;2023-07-02T03:42:17;17.45;;;7.30;;
80985;SDS011;70451;51.226;6.412;2023-07-02T03:44:32;18.33;;;7.38;;
80985;SDS011;70451;51.226;6.412;2023-07-02T03:46:48;19.45;;;7.93;;
80985;SDS011;70451;51.226;6.412;2023-07-02T03:49:03;15.60;;;7.13;;
80985;SDS011;70451;51.226;6.412;2023-07-02T03:51:19;20.10;;;8.77;;
80985;SDS011;70451;51.226;6.412;2023-07-02T03:53:34;21.58;;;7.50;;
80985;SDS011;70451;51.226;6.412;2023-07-02T03:55:49;17.08;;;6.97;;
80985;SDS011;70451;51.226;6.412;2023-07-02T03:58:05;18.25;;;7.55;;
80985;SDS011;70451;51.226;6.412;2023-07-02T04:00:20;17.15;;;7.60;;
80985;SDS011;70451;51.226;6.412;2023-07-02T04:02:35;20.52;;;8.60;;
80985;SDS011;70451;51.226;6.412;2023-07-02T04:04:50;16.20;;;7.68;;
80985;SDS011;70451;51.226;6.412;2023-07-02T04:07:06;15.45;;;7.72;;
80985;SDS011;70451;51.226;6.412;2023-07-02T04:09:21;16.27;;;7.28;;
80985;SDS011;70451;51.226;6.412;2023-07-02T04:11:37;16.70;;;8.20;;
80985;SDS011;70451;51.226;6.412;2023-07-02T04:13:52;16.45;;;7.68;;
80985;SDS011;70451;51.226;6.412;2023-07-02T04:16:07;18.98;;;8.70;;
80985;SDS011;70451;51.226;6.412;2023-07-02T04:18:22;16.50;;;8.15;;
80985;SDS011;70451;51.226;6.412;2023-07-02T04:20:38;19.52;;;8.35;;
80985;SDS011;70451;51.226;6.412;2023-07-02T04:22:53;19.77;;;8.93;;
80985;SDS011;70451;51.226;6.412;2023-07-02T04:25:09;14.70;;;7.50;;
80985;SDS011;70451;51.226;6.412;2023-07-02T04:27:24;17.88;;;8.30;;
80985;SDS011;70451;51.226;6.412;2023-07-02T04:29:39;20.20;;;8.57;;
80985;SDS011;70451;51.226;6.412;2023-07-02T04:31:55;20.20;;;8.63;;
80985;SDS011;70451;51.226;6.412;2023-07-02T04:34:10;18.50;;;8.18;;
80985;SDS011;70451;51.226;6.412;2023-07-02T04:36:25;22.00;;;9.43;;
80985;SDS011;70451;51.226;6.412;2023-07-02T04:38:41;19.83;;;8.70;;
80985;SDS011;70451;51.226;6.412;2023-07-02T04:40:56;18.98;;;7.75;;
80985;SDS011;70451;51.226;6.412;2023-07-02T04:43:16;17.10;;;9.10;;
80985;SDS011;70451;51.226;6.412;2023-07-02T04:45:33;20.85;;;9.20;;
80985;SDS011;70451;51.226;6.412;2023-07-02T04:47:51;19.27;;;8.45;;
80985;SDS011;70451;51.226;6.412;2023-07-02T04:50:06;18.77;;;9.05;;
80985;SDS011;70451;51.226;6.412;2023-07-02T04:52:22;21.08;;;9.20;;
80985;SDS011;70451;51.226;6.412;2023-07-02T04:54:37;23.55;;;10.07;;
80985;SDS011;70451;51.226;6.412;2023-07-02T04:56:52;23.00;;;9.40;;
80985;SDS011;70451;51.226;6.412;2023-07-02T04:59:08;21.83;;;9.80;;
80985;SDS011;70451;51.226;6.412;2023-07-02T05:01:23;18.17;;;8.02;;
80985;SDS011;70451;51.226;6.412;2023-07-02T05:03:38;22.52;;;10.27;;
80985;SDS011;70451;51.226;6.412;2023-07-02T05:05:54;22.52;;;9.85;;
80985;SDS011;70451;51.226;6.412;2023-07-02T05:08:10;21.90;;;10.20;;
80985;SDS011;70451;51.226;6.412;2023-07-02T05:10:25;20.90;;;8.88;;
80985;SDS011;70451;51.226;6.412;2023-07-02T05:12:40;22.90;;;9.82;;
80985;SDS011;70451;51.226;6.412;2023-07-02T05:14:56;20.77;;;9.20;;
80985;SDS011;70451;51.226;6.412;2023-07-02T05:17:11;20.17;;;8.75;;
80985;SDS011;70451;51.226;6.412;2023-07-02T05:19:29;22.02;;;8.98;;
80985;SDS011;70451;51.226;6.412;2023-07-02T05:21:44;21.88;;;9.15;;
80985;SDS011;70451;51.226;6.412;2023-07-02T05:23:59;21.88;;;9.30;;
80985;SDS011;70451;51.226;6.412;2023-07-02T05:26:15;20.70;;;9.48;;
80985;SDS011;70451;51.226;6.412;2023-07-02T05:28:30;17.52;;;8.82;;
80985;SDS011;70451;51.226;6.412;2023-07-02T05:30:45;20.90;;;10.32;;
80985;SDS011;70451;51.226;6.412;2023-07-02T05:33:01;22.38;;;10.00;;
80985;SDS011;70451;51.226;6.412;2023-07-02T05:35:16;19.85;;;9.40;;
80985;SDS011;70451;51.226;6.412;2023-07-02T05:37:31;20.10;;;9.40;;
80985;SDS011;70451;51.226;6.412;2023-07-02T05:39:47;22.33;;;9.40;;
80985;SDS011;70451;51.226;6.412;2023-07-02T05:42:03;27.98;;;9.88;;
80985;SDS011;70451;51.226;6.412;2023-07-02T05:44:19;20.80;;;9.25;;
80985;SDS011;70451;51.226;6.412;2023-07-02T05:46:34;21.88;;;10.10;;
80985;SDS011;70451;51.226;6.412;2023-07-02T05:48:49;22.10;;;9.82;;
80985;SDS011;70451;51.226;6.412;2023-07-02T05:51:05;23.23;;;9.70;;
80985;SDS011;70451;51.226;6.412;2023-07-02T05:53:20;20.10;;;10.23;;
80985;SDS011;70451;51.226;6.412;2023-07-02T05:55:35;24.60;;;10.43;;
80985;SDS011;70451;51.226;6.412;2023-07-02T05:57:50;23.90;;;10.45;;
80985;SDS011;70451;51.226;6.412;2023-07-02T06:00:06;23.00;;;10.25;;
80985;SDS011;70451;51.226;6.412;2023-07-02T06:02:22;24.95;;;10.70;;
80985;SDS011;70451;51.226;6.412;2023-07-02T06:04:37;25.00;;;9.20;;
80985;SDS011;70451;51.226;6.412;2023-07-02T06:06:52;21.40;;;9.40;;
80985;SDS011;70451;51.226;6.412;2023-07-02T06:09:08;22.67;;;9.65;;
80985;SDS011;70451;51.226;6.412;2023-07-02T06:11:23;20.60;;;11.07;;
80985;SDS011;70451;51.226;6.412;2023-07-02T06:13:38;21.92;;;9.75;;
80985;SDS011;70451;51.226;6.412;2023-07-02T06:15:53;26.42;;;9.75;;
80985;SDS011;70451;51.226;6.412;2023-07-02T06:18:09;24.05;;;9.98;;
80985;SDS011;70451;51.226;6.412;2023-07-02T06:20:24;23.25;;;10.07;;
80985;SDS011;70451;51.226;6.412;2023-07-02T06:22:39;25.77;;;9.68;;
80985;SDS011;70451;51.226;6.412;2023-07-02T06:24:56;24.70;;;10.30;;
80985;SDS011;70451;51.226;6.412;2023-07-02T06:27:11;23.85;;;10.07;;
80985;SDS011;70451;51.226;6.412;2023-07-02T06:29:27;23.38;;;10.07;;
80985;SDS011;70451;51.226;6.412;2023-07-02T06:31:43;18.80;;;9.52;;
80985;SDS011;70451;51.226;6.412;2023-07-02T06:33:58;26.02;;;9.35;;
80985;SDS011;70451;51.226;6.412;2023-07-02T06:36:14;21.30;;;9.45;;
80985;SDS011;70451;51.226;6.412;2023-07-02T06:38:29;20.98;;;10.00;;
80985;SDS011;70451;51.226;6.412;2023-07-02T06:40:45;25.20;;;10.23;;
80985;SDS011;70451;51.226;6.412;2023-07-02T06:43:00;25.20;;;10.43;;
80985;SDS011;70451;51.226;6.412;2023-07-02T06:45:15;24.17;;;10.00;;
80985;SDS011;70451;51.226;6.412;2023-07-02T06:47:31;22.25;;;9.35;;
80985;SDS011;70451;51.226;6.412;2023-07-02T06:49:46;19.23;;;9.18;;
80985;SDS011;70451;51.226;6.412;2023-07-02T06:52:01;20.17;;;8.85;;
80985;SDS011;70451;51.226;6.412;2023-07-02T06:54:17;21.20;;;8.90;;
80985;SDS011;70451;51.226;6.412;2023-07-02T06:56:32;20.98;;;8.70;;
80985;SDS011;70451;51.226;6.412;2023-07-02T06:58:49;21.33;;;8.93;;
80985;SDS011;70451;51.226;6.412;2023-07-02T07:01:04;20.98;;;9.52;;
80985;SDS011;70451;51.226;6.412;2023-07-02T07:03:19;22.17;;;9.60;;
80985;SDS011;70451;51.226;6.412;2023-07-02T07:05:34;18.50;;;8.68;;
80985;SDS011;70451;51.226;6.412;2023-07-02T07:07:50;18.10;;;8.30;;
80985;SDS011;70451;51.226;6.412;2023-07-02T07:10:05;18.52;;;8.13;;
80985;SDS011;70451;51.226;6.412;2023-07-02T07:12:21;19.80;;;9.52;;
80985;SDS011;70451;51.226;6.412;2023-07-02T07:14:37;18.73;;;8.05;;
80985;SDS011;70451;51.226;6.412;2023-07-02T07:16:52;18.17;;;8.05;;
80985;SDS011;70451;51.226;6.412;2023-07-02T07:19:07;22.38;;;8.77;;
80985;SDS011;70451;51.226;6.412;2023-07-02T07:21:22;17.70;;;8.43;;
80985;SDS011;70451;51.226;6.412;2023-07-02T07:23:38;20.45;;;8.93;;
80985;SDS011;70451;51.226;6.412;2023-07-02T07:25:54;15.60;;;8.32;;
80985;SDS011;70451;51.226;6.412;2023-07-02T07:28:09;17.63;;;7.47;;
80985;SDS011;70451;51.226;6.412;2023-07-02T07:30:30;14.90;;;7.22;;
80985;SDS011;70451;51.226;6.412;2023-07-02T07:32:45;19.90;;;7.90;;
80985;SDS011;70451;51.226;6.412;2023-07-02T07:35:00;20.92;;;8.20;;
80985;SDS011;70451;51.226;6.412;2023-07-02T07:37:16;19.00;;;7.80;;
80985;SDS011;70451;51.226;6.412;2023-07-02T07:39:31;16.45;;;7.80;;
80985;SDS011;70451;51.226;6.412;2023-07-02T07:41:46;17.77;;;8.00;;
80985;SDS011;70451;51.226;6.412;2023-07-02T07:44:03;17.73;;;8.05;;
80985;SDS011;70451;51.226;6.412;2023-07-02T07:46:18;18.60;;;8.30;;
80985;SDS011;70451;51.226;6.412;2023-07-02T07:48:34;21.17;;;8.93;;
80985;SDS011;70451;51.226;6.412;2023-07-02T07:50:51;16.17;;;8.05;;
80985;SDS011;70451;51.226;6.412;2023-07-02T07:53:06;17.58;;;7.88;;
80985;SDS011;70451;51.226;6.412;2023-07-02T07:55:21;18.33;;;8.07;;
80985;SDS011;70451;51.226;6.412;2023-07-02T07:57:37;16.15;;;7.38;;
80985;SDS011;70451;51.226;6.412;2023-07-02T07:59:52;18.67;;;7.60;;
80985;SDS011;70451;51.226;6.412;2023-07-02T08:02:08;18.80;;;7.45;;
80985;SDS011;70451;51.226;6.412;2023-07-02T08:04:24;16.83;;;7.30;;
80985;SDS011;70451;51.226;6.412;2023-07-02T08:06:39;18.13;;;7.43;;
80985;SDS011;70451;51.226;6.412;2023-07-02T08:08:54;16.90;;;7.40;;
80985;SDS011;70451;51.226;6.412;2023-07-02T08:11:09;18.35;;;8.13;;
80985;SDS011;70451;51.226;6.412;2023-07-02T08:13:25;16.17;;;6.70;;
80985;SDS011;70451;51.226;6.412;2023-07-02T08:15:40;18.45;;;6.97;;
80985;SDS011;70451;51.226;6.412;2023-07-02T08:17:55;12.57;;;6.53;;
80985;SDS011;70451;51.226;6.412;2023-07-02T08:20:13;16.92;;;7.10;;
80985;SDS011;70451;51.226;6.412;2023-07-02T08:22:28;17.17;;;6.90;;
80985;SDS011;70451;51.226;6.412;2023-07-02T08:24:45;14.45;;;6.82;;
80985;SDS011;70451;51.226;6.412;2023-07-02T08:27:00;15.48;;;7.50;;
80985;SDS011;70451;51.226;6.412;2023-07-02T08:29:17;17.45;;;7.30;;
80985;SDS011;70451;51.226;6.412;2023-07-02T08:31:32;15.75;;;7.53;;
80985;SDS011;70451;51.226;6.412;2023-07-02T08:33:48;16.80;;;7.60;;
80985;SDS011;70451;51.226;6.412;2023-07-02T08:36:03;17.75;;;7.40;;
80985;SDS011;70451;51.226;6.412;2023-07-02T08:38:18;15.48;;;7.22;;
80985;SDS011;70451;51.226;6.412;2023-07-02T08:40:34;16.40;;;7.25;;
80985;SDS011;70451;51.226;6.412;2023-07-02T08:42:49;13.48;;;6.35;;
80985;SDS011;70451;51.226;6.412;2023-07-02T08:45:05;19.05;;;7.25;;
80985;SDS011;70451;51.226;6.412;2023-07-02T08:47:21;17.92;;;7.85;;
80985;SDS011;70451;51.226;6.412;2023-07-02T08:49:37;20.33;;;7.47;;
80985;SDS011;70451;51.226;6.412;2023-07-02T08:51:52;20.40;;;7.95;;
80985;SDS011;70451;51.226;6.412;2023-07-02T08:54:07;17.77;;;7.60;;
80985;SDS011;70451;51.226;6.412;2023-07-02T08:56:23;19.67;;;7.93;;
80985;SDS011;70451;51.226;6.412;2023-07-02T08:58:38;15.20;;;6.72;;
80985;SDS011;70451;51.226;6.412;2023-07-02T09:03:22;16.58;;;7.55;;
80985;SDS011;70451;51.226;6.412;2023-07-02T09:08:02;14.45;;;7.05;;
80985;SDS011;70451;51.226;6.412;2023-07-02T09:10:27;18.85;;;7.82;;
80985;SDS011;70451;51.226;6.412;2023-07-02T09:12:44;19.05;;;8.50;;
80985;SDS011;70451;51.226;6.412;2023-07-02T09:15:03;17.63;;;7.00;;
80985;SDS011;70451;51.226;6.412;2023-07-02T09:17:21;16.80;;;7.82;;
80985;SDS011;70451;51.226;6.412;2023-07-02T09:19:36;17.70;;;7.35;;
80985;SDS011;70451;51.226;6.412;2023-07-02T09:22:02;19.52;;;7.28;;
80985;SDS011;70451;51.226;6.412;2023-07-02T09:24:19;20.45;;;8.50;;
80985;SDS011;70451;51.226;6.412;2023-07-02T09:26:38;17.95;;;8.15;;
80985;SDS011;70451;51.226;6.412;2023-07-02T09:29:00;16.00;;;7.80;;
80985;SDS011;70451;51.226;6.412;2023-07-02T09:31:16;18.35;;;6.72;;
80985;SDS011;70451;51.226;6.412;2023-07-02T09:33:32;15.85;;;6.35;;
80985;SDS011;70451;51.226;6.412;2023-07-02T09:35:47;14.32;;;7.03;;
80985;SDS011;70451;51.226;6.412;2023-07-02T09:38:02;15.23;;;5.80;;
80985;SDS011;70451;51.226;6.412;2023-07-02T09:40:18;13.60;;;6.38;;
80985;SDS011;70451;51.226;6.412;2023-07-02T09:42:33;11.45;;;5.45;;
80985;SDS011;70451;51.226;6.412;2023-07-02T09:44:51;11.18;;;5.05;;
80985;SDS011;70451;51.226;6.412;2023-07-02T09:47:09;14.80;;;5.40;;
80985;SDS011;70451;51.226;6.412;2023-07-02T09:49:26;11.15;;;5.35;;
80985;SDS011;70451;51.226;6.412;2023-07-02T09:51:46;10.88;;;5.03;;
80985;SDS011;70451;51.226;6.412;2023-07-02T09:54:01;11.25;;;4.75;;
80985;SDS011;70451;51.226;6.412;2023-07-02T09:56:17;11.27;;;4.45;;
80985;SDS011;70451;51.226;6.412;2023-07-02T09:58:33;16.50;;;6.15;;
80985;SDS011;70451;51.226;6.412;2023-07-02T10:00:48;12.43;;;5.25;;
80985;SDS011;70451;51.226;6.412;2023-07-02T10:03:04;10.23;;;5.70;;
80985;SDS011;70451;51.226;6.412;2023-07-02T10:07:45;11.93;;;6.28;;
80985;SDS011;70451;51.226;6.412;2023-07-02T10:10:00;14.32;;;6.35;;
80985;SDS011;70451;51.226;6.412;2023-07-02T10:12:17;12.43;;;5.72;;
80985;SDS011;70451;51.226;6.412;2023-07-02T10:14:42;10.82;;;5.05;;
80985;SDS011;70451;51.226;6.412;2023-07-02T10:16:58;14.65;;;5.78;;
80985;SDS011;70451;51.226;6.412;2023-07-02T10:19:13;10.88;;;5.25;;
80985;SDS011;70451;51.226;6.412;2023-07-02T10:21:28;10.27;;;5.35;;
80985;SDS011;70451;51.226;6.412;2023-07-02T10:23:44;10.15;;;4.75;;
80985;SDS011;70451;51.226;6.412;2023-07-02T10:26:09;11.68;;;5.25;;
80985;SDS011;70451;51.226;6.412;2023-07-02T10:28:33;9.57;;;5.10;;
80985;SDS011;70451;51.226;6.412;2023-07-02T10:30:49;13.88;;;5.32;;
80985;SDS011;70451;51.226;6.412;2023-07-02T10:33:10;10.13;;;4.55;;
80985;SDS011;70451;51.226;6.412;2023-07-02T10:35:27;9.85;;;4.65;;
80985;SDS011;70451;51.226;6.412;2023-07-02T10:37:49;9.73;;;4.88;;
80985;SDS011;70451;51.226;6.412;2023-07-02T10:40:05;11.48;;;4.82;;
80985;SDS011;70451;51.226;6.412;2023-07-02T10:42:21;9.68;;;4.40;;
80985;SDS011;70451;51.226;6.412;2023-07-02T10:44:46;12.23;;;5.22;;
80985;SDS011;70451;51.226;6.412;2023-07-02T10:47:05;10.65;;;5.00;;
80985;SDS011;70451;51.226;6.412;2023-07-02T10:49:20;9.55;;;4.80;;
80985;SDS011;70451;51.226;6.412;2023-07-02T10:51:35;9.30;;;5.15;;
80985;SDS011;70451;51.226;6.412;2023-07-02T10:54:00;13.13;;;5.30;;
80985;SDS011;70451;51.226;6.412;2023-07-02T10:56:17;14.13;;;5.45;;
80985;SDS011;70451;51.226;6.412;2023-07-02T10:58:41;12.50;;;5.00;;
80985;SDS011;70451;51.226;6.412;2023-07-02T11:00:57;10.00;;;5.00;;
80985;SDS011;70451;51.226;6.412;2023-07-02T11:05:40;12.85;;;5.10;;
80985;SDS011;70451;51.226;6.412;2023-07-02T11:08:07;9.77;;;4.45;;
80985;SDS011;70451;51.226;6.412;2023-07-02T11:10:23;10.30;;;4.82;;
80985;SDS011;70451;51.226;6.412;2023-07-02T11:12:40;12.27;;;4.93;;
80985;SDS011;70451;51.226;6.412;2023-07-02T11:14:55;11.75;;;4.78;;
80985;SDS011;70451;51.226;6.412;2023-07-02T11:17:25;11.02;;;4.93;;
80985;SDS011;70451;51.226;6.412;2023-07-02T11:19:41;11.02;;;5.55;;
80985;SDS011;70451;51.226;6.412;2023-07-02T11:21:57;12.43;;;4.80;;
80985;SDS011;70451;51.226;6.412;2023-07-02T11:24:13;10.27;;;4.97;;
80985;SDS011;70451;51.226;6.412;2023-07-02T11:26:37;9.95;;;4.97;;
80985;SDS011;70451;51.226;6.412;2023-07-02T11:28:54;11.02;;;5.35;;
80985;SDS011;70451;51.226;6.412;2023-07-02T11:31:09;11.80;;;5.40;;
80985;SDS011;70451;51.226;6.412;2023-07-02T11:33:42;11.18;;;5.20;;
80985;SDS011;70451;51.226;6.412;2023-07-02T11:35:59;11.73;;;5.75;;
80985;SDS011;70451;51.226;6.412;2023-07-02T11:38:15;12.75;;;5.57;;
80985;SDS011;70451;51.226;6.412;2023-07-02T11:40:30;14.05;;;5.70;;
80985;SDS011;70451;51.226;6.412;2023-07-02T11:42:45;14.18;;;5.38;;
80985;SDS011;70451;51.226;6.412;2023-07-02T11:45:00;14.23;;;5.82;;
80985;SDS011;70451;51.226;6.412;2023-07-02T11:47:16;11.40;;;5.72;;
80985;SDS011;70451;51.226;6.412;2023-07-02T11:49:31;9.95;;;5.43;;
80985;SDS011;70451;51.226;6.412;2023-07-02T11:51:47;12.02;;;5.57;;
80985;SDS011;70451;51.226;6.412;2023-07-02T11:54:04;12.13;;;4.93;;
80985;SDS011;70451;51.226;6.412;2023-07-02T11:56:19;10.35;;;5.20;;
80985;SDS011;70451;51.226;6.412;2023-07-02T11:58:35;10.95;;;5.47;;
80985;SDS011;70451;51.226;6.412;2023-07-02T12:00:50;10.38;;;5.47;;
80985;SDS011;70451;51.226;6.412;2023-07-02T12:03:05;13.70;;;5.50;;
80985;SDS011;70451;51.226;6.412;2023-07-02T12:05:21;12.73;;;5.53;;
80985;SDS011;70451;51.226;6.412;2023-07-02T12:07:36;12.50;;;5.45;;
80985;SDS011;70451;51.226;6.412;2023-07-02T12:09:52;12.93;;;5.22;;
80985;SDS011;70451;51.226;6.412;2023-07-02T12:12:07;10.73;;;4.85;;
80985;SDS011;70451;51.226;6.412;2023-07-02T12:14:23;10.48;;;4.90;;
80985;SDS011;70451;51.226;6.412;2023-07-02T12:16:38;9.85;;;5.07;;
80985;SDS011;70451;51.226;6.412;2023-07-02T12:18:53;9.77;;;5.30;;
80985;SDS011;70451;51.226;6.412;2023-07-02T12:21:09;13.13;;;4.88;;
80985;SDS011;70451;51.226;6.412;2023-07-02T12:23:24;13.25;;;5.25;;
80985;SDS011;70451;51.226;6.412;2023-07-02T12:25:39;10.02;;;4.55;;
80985;SDS011;70451;51.226;6.412;2023-07-02T12:27:55;11.73;;;5.25;;
80985;SDS011;70451;51.226;6.412;2023-07-02T12:30:10;11.93;;;5.30;;
80985;SDS011;70451;51.226;6.412;2023-07-02T12:32:25;12.50;;;4.82;;
80985;SDS011;70451;51.226;6.412;2023-07-02T12:34:41;12.80;;;5.30;;
80985;SDS011;70451;51.226;6.412;2023-07-02T12:36:56;12.98;;;5.82;;
80985;SDS011;70451;51.226;6.412;2023-07-02T12:39:11;11.18;;;5.47;;
80985;SDS011;70451;51.226;6.412;2023-07-02T12:41:27;11.00;;;5.55;;
80985;SDS011;70451;51.226;6.412;2023-07-02T12:43:43;10.20;;;4.95;;
80985;SDS011;70451;51.226;6.412;2023-07-02T12:45:58;13.95;;;5.35;;
80985;SDS011;70451;51.226;6.412;2023-07-02T12:48:14;13.45;;;4.72;;
80985;SDS011;70451;51.226;6.412;2023-07-02T12:50:29;10.85;;;5.43;;
80985;SDS011;70451;51.226;6.412;2023-07-02T12:52:44;11.32;;;5.30;;
80985;SDS011;70451;51.226;6.412;2023-07-02T12:55:00;13.98;;;5.57;;
80985;SDS011;70451;51.226;6.412;2023-07-02T12:57:16;13.00;;;5.22;;
80985;SDS011;70451;51.226;6.412;2023-07-02T12:59:32;10.55;;;4.57;;
80985;SDS011;70451;51.226;6.412;2023-07-02T13:01:48;11.48;;;5.25;;
80985;SDS011;70451;51.226;6.412;2023-07-02T13:04:03;10.55;;;5.05;;
80985;SDS011;70451;51.226;6.412;2023-07-02T13:06:18;8.65;;;4.75;;
80985;SDS011;70451;51.226;6.412;2023-07-02T13:08:34;12.90;;;6.03;;
80985;SDS011;70451;51.226;6.412;2023-07-02T13:10:49;9.38;;;5.63;;
80985;SDS011;70451;51.226;6.412;2023-07-02T13:13:04;12.10;;;5.18;;
80985;SDS011;70451;51.226;6.412;2023-07-02T13:15:20;11.30;;;5.38;;
80985;SDS011;70451;51.226;6.412;2023-07-02T13:17:35;11.13;;;5.38;;
80985;SDS011;70451;51.226;6.412;2023-07-02T13:19:50;11.98;;;5.90;;
80985;SDS011;70451;51.226;6.412;2023-07-02T13:22:06;10.27;;;5.53;;
80985;SDS011;70451;51.226;6.412;2023-07-02T13:24:21;11.15;;;5.72;;
80985;SDS011;70451;51.226;6.412;2023-07-02T13:26:36;11.15;;;5.15;;
80985;SDS011;70451;51.226;6.412;2023-07-02T13:28:52;13.18;;;6.45;;
80985;SDS011;70451;51.226;6.412;2023-07-02T13:31:07;14.73;;;5.13;;
80985;SDS011;70451;51.226;6.412;2023-07-02T13:33:24;12.55;;;6.30;;
80985;SDS011;70451;51.226;6.412;2023-07-02T13:35:39;12.63;;;5.22;;
80985;SDS011;70451;51.226;6.412;2023-07-02T13:37:54;13.93;;;5.57;;
80985;SDS011;70451;51.226;6.412;2023-07-02T13:40:10;12.02;;;5.57;;
80985;SDS011;70451;51.226;6.412;2023-07-02T13:42:27;11.75;;;6.32;;